createdAt,value
2018-06-29T00:01:32.573Z,1.93
2018-06-29T00:04:01.660Z,1.97
2018-06-29T00:06:30.755Z,1.90
2018-06-29T00:08:59.839Z,2.20
2018-06-29T00:11:28.917Z,1.90
2018-06-29T00:13:58.241Z,1.50
2018-06-29T00:16:27.702Z,2.10
2018-06-29T00:18:56.931Z,2.13
2018-06-29T00:21:26.230Z,2.17
2018-06-29T00:23:55.300Z,2.17
2018-06-29T00:26:24.636Z,2.00
2018-06-29T00:28:53.938Z,2.03
2018-06-29T00:31:23.021Z,1.27
2018-06-29T00:33:52.134Z,2.00
2018-06-29T00:36:21.461Z,1.50
2018-06-29T00:38:51.009Z,1.93
2018-06-29T00:41:20.544Z,1.93
2018-06-29T00:43:49.868Z,1.90
2018-06-29T00:46:19.176Z,1.67
2018-06-29T00:48:48.670Z,1.70
2018-06-29T00:51:17.798Z,2.00
2018-06-29T00:53:47.097Z,1.80
2018-06-29T00:56:16.182Z,1.70
2018-06-29T00:58:45.506Z,1.90
2018-06-29T01:01:14.813Z,1.73
2018-06-29T01:03:44.139Z,1.57
2018-06-29T01:06:13.706Z,1.80
2018-06-29T01:08:43.013Z,2.00
2018-06-29T01:11:12.082Z,2.00
2018-06-29T01:13:41.545Z,1.73
2018-06-29T01:16:10.893Z,1.90
2018-06-29T01:18:40.431Z,2.17
2018-06-29T01:21:09.962Z,1.90
2018-06-29T01:23:39.252Z,2.10
2018-06-29T01:26:08.576Z,1.47
2018-06-29T01:28:38.377Z,1.57
2018-06-29T01:31:07.645Z,2.20
2018-06-29T01:33:36.995Z,1.90
2018-06-29T01:36:06.317Z,2.37
2018-06-29T01:38:35.625Z,1.37
2018-06-29T01:41:05.065Z,2.30
2018-06-29T01:43:34.364Z,1.87
2018-06-29T01:46:03.799Z,1.43
2018-06-29T01:48:33.346Z,1.60
2018-06-29T01:51:02.634Z,1.60
2018-06-29T01:53:31.704Z,2.00
2018-06-29T01:56:00.793Z,1.50
2018-06-29T01:58:30.117Z,1.83
2018-06-29T02:00:59.441Z,1.77
2018-06-29T02:03:28.769Z,2.03
2018-06-29T02:05:58.325Z,1.63
2018-06-29T02:08:27.851Z,1.90
2018-06-29T02:10:57.151Z,1.60
2018-06-29T02:13:26.709Z,1.43
2018-06-29T02:15:56.262Z,2.20
2018-06-29T02:18:25.584Z,1.50
2018-06-29T02:20:54.889Z,1.60
2018-06-29T02:23:24.417Z,2.20
2018-06-29T02:25:53.739Z,1.60
2018-06-29T02:28:22.817Z,1.40
2018-06-29T02:30:51.932Z,2.07
2018-06-29T02:33:21.502Z,2.00
2018-06-29T02:35:51.326Z,1.63
2018-06-29T02:38:20.645Z,1.63
2018-06-29T02:40:50.127Z,1.77
2018-06-29T02:43:19.453Z,2.40
2018-06-29T02:45:48.731Z,1.70
2018-06-29T02:48:18.073Z,1.50
2018-06-29T02:50:47.606Z,1.57
2018-06-29T02:53:16.993Z,1.67
2018-06-29T02:55:46.330Z,1.60
2018-06-29T02:58:15.631Z,1.30
2018-06-29T03:00:44.719Z,1.53
2018-06-29T03:03:13.795Z,1.57
2018-06-29T03:05:43.359Z,1.53
2018-06-29T03:08:12.742Z,1.80
2018-06-29T03:10:42.283Z,1.40
2018-06-29T03:13:11.590Z,2.10
2018-06-29T03:15:40.923Z,1.50
2018-06-29T03:18:10.221Z,1.30
2018-06-29T03:20:39.293Z,2.03
2018-06-29T03:23:08.620Z,1.47
2018-06-29T03:25:37.939Z,1.50
2018-06-29T03:28:07.039Z,1.70
2018-06-29T03:30:36.158Z,1.40
2018-06-29T03:33:05.541Z,1.50
2018-06-29T03:35:35.266Z,1.80
2018-06-29T03:38:05.186Z,2.13
2018-06-29T03:40:34.656Z,1.50
2018-06-29T03:43:03.809Z,1.70
2018-06-29T03:45:33.109Z,1.53
2018-06-29T03:48:02.433Z,1.30
2018-06-29T03:50:31.744Z,1.77
2018-06-29T03:53:00.837Z,1.53
2018-06-29T03:55:30.128Z,1.97
2018-06-29T03:57:59.573Z,1.50
2018-06-29T04:00:28.889Z,1.50
2018-06-29T04:02:58.436Z,1.53
2018-06-29T04:05:27.960Z,1.60
2018-06-29T04:07:57.494Z,1.60
2018-06-29T04:10:26.821Z,1.40
2018-06-29T04:12:56.391Z,1.53
2018-06-29T04:15:25.665Z,1.40
2018-06-29T04:17:54.750Z,1.60
2018-06-29T04:20:23.829Z,1.93
2018-06-29T04:22:53.164Z,1.27
2018-06-29T04:25:22.457Z,1.70
2018-06-29T04:27:52.129Z,1.10
2018-06-29T04:30:21.663Z,1.67
2018-06-29T04:32:51.021Z,1.80
2018-06-29T04:35:20.415Z,1.77
2018-06-29T04:37:49.753Z,1.87
2018-06-29T04:40:19.056Z,1.60
2018-06-29T04:42:48.429Z,1.77
2018-06-29T04:45:17.908Z,1.70
2018-06-29T04:47:47.442Z,1.70
2018-06-29T04:50:17.353Z,1.90
2018-06-29T04:52:46.678Z,1.67
2018-06-29T04:55:16.212Z,1.90
2018-06-29T04:57:45.784Z,1.70
2018-06-29T05:00:15.249Z,1.63
2018-06-29T05:02:44.328Z,1.63
2018-06-29T05:05:13.396Z,1.90
2018-06-29T05:07:42.502Z,1.33
2018-06-29T05:10:11.586Z,1.40
2018-06-29T05:12:40.916Z,1.80
2018-06-29T05:15:10.469Z,1.53
2018-06-29T05:17:39.760Z,1.90
2018-06-29T05:20:09.085Z,1.90
2018-06-29T05:22:38.385Z,1.47
2018-06-29T05:25:07.889Z,1.80
2018-06-29T05:27:37.686Z,1.90
2018-06-29T05:30:08.051Z,1.60
2018-06-29T05:32:37.794Z,1.87
2018-06-29T05:35:07.332Z,1.50
2018-06-29T05:37:36.643Z,1.70
2018-06-29T05:40:06.263Z,1.83
2018-06-29T05:42:36.080Z,1.83
2018-06-29T05:45:06.556Z,2.00
2018-06-29T05:47:36.092Z,1.87
2018-06-29T05:50:05.795Z,2.30
2018-06-29T05:52:35.143Z,1.70
2018-06-29T05:55:05.191Z,2.10
2018-06-29T05:57:34.847Z,1.90
2018-06-29T06:00:04.545Z,1.80
2018-06-29T06:02:34.166Z,2.40
2018-06-29T06:05:03.697Z,1.97
2018-06-29T06:07:32.783Z,2.17
2018-06-29T06:10:01.925Z,2.27
2018-06-29T06:12:31.401Z,1.90
2018-06-29T06:15:00.478Z,2.20
2018-06-29T06:17:29.807Z,1.97
2018-06-29T06:20:13.210Z,2.30
2018-06-29T06:22:42.532Z,2.63
2018-06-29T06:25:11.889Z,2.77
2018-06-29T06:27:41.437Z,2.77
2018-06-29T06:30:10.715Z,2.70
2018-06-29T06:32:39.792Z,2.73
2018-06-29T06:35:08.915Z,3.50
2018-06-29T06:37:38.225Z,3.47
2018-06-29T06:40:07.541Z,3.80
2018-06-29T06:42:36.877Z,4.50
2018-06-29T06:45:06.239Z,4.90
2018-06-29T06:47:35.320Z,5.70
2018-06-29T06:50:04.717Z,5.57
2018-06-29T06:52:34.027Z,5.37
2018-06-29T06:55:03.125Z,5.20
2018-06-29T06:57:32.425Z,5.50
2018-06-29T07:00:01.744Z,5.07
2018-06-29T07:02:31.161Z,6.53
2018-06-29T07:05:00.714Z,4.80
2018-06-29T07:07:30.000Z,5.67
2018-06-29T07:09:59.327Z,5.37
2018-06-29T07:12:28.878Z,5.60
2018-06-29T07:14:58.156Z,6.90
2018-06-29T07:17:27.549Z,6.00
2018-06-29T07:19:56.847Z,5.67
2018-06-29T07:22:26.216Z,5.90
2018-06-29T07:24:55.751Z,6.00
2018-06-29T07:27:25.264Z,5.77
2018-06-29T07:29:54.859Z,5.53
2018-06-29T07:32:24.736Z,6.53
2018-06-29T07:34:54.317Z,6.27
2018-06-29T07:37:23.886Z,7.43
2018-06-29T07:39:54.910Z,7.50
2018-06-29T07:42:24.257Z,6.80
2018-06-29T07:44:53.589Z,6.70
2018-06-29T07:47:22.976Z,6.93
2018-06-29T07:49:52.336Z,6.80
2018-06-29T07:52:21.632Z,6.13
2018-06-29T07:54:50.948Z,5.60
2018-06-29T07:57:20.248Z,5.60
2018-06-29T07:59:49.595Z,5.70
2018-06-29T08:02:18.893Z,6.63
2018-06-29T08:04:48.211Z,5.30
2018-06-29T08:07:17.775Z,6.00
2018-06-29T08:09:47.115Z,5.07
2018-06-29T08:12:16.466Z,5.60
2018-06-29T08:14:45.771Z,5.67
2018-06-29T08:17:15.075Z,5.70
2018-06-29T08:19:44.499Z,4.50
2018-06-29T08:22:13.584Z,5.87
2018-06-29T08:24:54.213Z,4.83
2018-06-29T08:27:24.526Z,5.80
2018-06-29T08:29:53.622Z,5.40
2018-06-29T08:32:22.883Z,5.10
2018-06-29T08:34:52.202Z,5.60
2018-06-29T08:37:21.748Z,4.97
2018-06-29T08:39:51.046Z,5.47
2018-06-29T08:42:20.363Z,5.17
2018-06-29T08:44:49.665Z,5.90
2018-06-29T08:47:19.173Z,5.10
2018-06-29T08:49:48.509Z,5.47
2018-06-29T08:52:18.308Z,4.90
2018-06-29T08:54:47.621Z,5.17
2018-06-29T08:57:16.958Z,5.13
2018-06-29T08:59:46.211Z,5.67
2018-06-29T09:02:15.534Z,5.27
2018-06-29T09:04:44.839Z,5.63
2018-06-29T09:07:13.915Z,6.00
2018-06-29T09:09:43.247Z,5.40
2018-06-29T09:12:12.532Z,5.37
2018-06-29T09:14:41.889Z,5.30
2018-06-29T09:17:11.191Z,5.33
2018-06-29T09:19:40.502Z,5.70
2018-06-29T09:22:09.832Z,5.43
2018-06-29T09:24:39.137Z,5.80
2018-06-29T09:27:08.777Z,5.20
2018-06-29T09:29:37.879Z,5.50
2018-06-29T09:32:07.221Z,5.00
2018-06-29T09:34:36.540Z,6.17
2018-06-29T09:37:05.656Z,5.43
2018-06-29T09:39:35.004Z,4.70
2018-06-29T09:42:04.322Z,5.17
2018-06-29T09:44:33.687Z,4.70
2018-06-29T09:47:03.015Z,4.67
2018-06-29T09:49:32.383Z,5.00
2018-06-29T09:52:01.692Z,4.23
2018-06-29T09:54:30.797Z,5.53
2018-06-29T09:56:59.892Z,3.90
2018-06-29T09:59:28.975Z,5.00
2018-06-29T10:01:58.100Z,4.43
2018-06-29T10:04:27.199Z,4.20
2018-06-29T10:06:56.332Z,4.20
2018-06-29T10:09:25.432Z,4.40
2018-06-29T10:11:54.789Z,4.30
2018-06-29T10:14:24.090Z,4.30
2018-06-29T10:16:53.745Z,4.43
2018-06-29T10:19:23.029Z,4.23
2018-06-29T10:21:52.117Z,3.10
2018-06-29T10:24:21.429Z,2.60
2018-06-29T10:26:50.519Z,2.60
2018-06-29T10:29:19.844Z,3.07
2018-06-29T10:31:49.151Z,3.37
2018-06-29T10:34:18.478Z,2.00
2018-06-29T10:36:47.856Z,1.90
2018-06-29T10:39:17.164Z,1.70
2018-06-29T10:41:46.705Z,2.60
2018-06-29T10:44:15.996Z,1.47
2018-06-29T10:46:45.322Z,2.00
2018-06-29T10:49:14.646Z,1.97
2018-06-29T10:51:43.955Z,2.13
2018-06-29T10:54:13.260Z,1.40
2018-06-29T10:56:42.332Z,1.60
2018-06-29T10:59:11.424Z,1.43
2018-06-29T11:01:40.494Z,1.77
2018-06-29T11:04:09.842Z,1.50
2018-06-29T11:06:39.124Z,1.20
2018-06-29T11:09:09.623Z,1.70
2018-06-29T11:11:39.351Z,1.40
2018-06-29T11:14:09.213Z,1.30
2018-06-29T11:16:38.740Z,1.30
2018-06-29T11:19:08.064Z,1.47
2018-06-29T11:21:37.235Z,0.90
2018-06-29T11:24:06.332Z,1.10
2018-06-29T11:26:35.655Z,1.40
2018-06-29T11:29:05.226Z,1.23
2018-06-29T11:31:34.521Z,1.40
2018-06-29T11:34:03.829Z,1.10
2018-06-29T11:36:33.360Z,1.30
2018-06-29T11:39:02.689Z,1.23
2018-06-29T11:41:32.216Z,1.17
2018-06-29T11:44:02.190Z,1.10
2018-06-29T11:46:32.477Z,1.20
2018-06-29T11:49:01.556Z,1.27
2018-06-29T11:51:30.906Z,1.33
2018-06-29T11:54:00.536Z,1.33
2018-06-29T11:56:29.615Z,1.10
2018-06-29T11:58:58.908Z,1.10
2018-06-29T12:01:28.133Z,1.33
2018-06-29T12:03:57.641Z,1.40
2018-06-29T12:06:27.148Z,1.17
2018-06-29T12:08:56.468Z,1.30
2018-06-29T12:11:25.559Z,1.73
2018-06-29T12:13:54.950Z,1.10
2018-06-29T12:16:24.269Z,1.30
2018-06-29T12:18:53.833Z,1.23
2018-06-29T12:21:23.093Z,1.27
2018-06-29T12:23:52.428Z,1.17
2018-06-29T12:26:21.982Z,1.40
2018-06-29T12:28:51.510Z,1.23
2018-06-29T12:31:21.041Z,1.50
2018-06-29T12:33:50.572Z,1.33
2018-06-29T12:36:19.869Z,1.30
2018-06-29T12:38:49.228Z,1.27
2018-06-29T12:41:18.540Z,1.10
2018-06-29T12:43:47.612Z,1.30
2018-06-29T12:46:17.076Z,0.90
2018-06-29T12:48:46.156Z,1.00
2018-06-29T12:51:15.931Z,1.10
2018-06-29T12:53:45.475Z,1.23
2018-06-29T12:56:14.758Z,1.43
2018-06-29T12:58:44.082Z,1.47
2018-06-29T13:01:13.396Z,1.00
2018-06-29T13:03:42.715Z,0.90
2018-06-29T13:06:12.275Z,1.87
2018-06-29T13:08:41.576Z,0.80
2018-06-29T13:11:10.892Z,0.90
2018-06-29T13:13:40.188Z,1.20
2018-06-29T13:16:09.500Z,1.30
2018-06-29T13:18:39.405Z,1.20
2018-06-29T13:21:09.951Z,0.90
2018-06-29T13:23:39.487Z,1.23
2018-06-29T13:26:09.209Z,0.90
2018-06-29T13:28:38.303Z,1.30
2018-06-29T13:31:08.023Z,1.10
2018-06-29T13:33:37.543Z,1.33
2018-06-29T13:36:06.684Z,0.70
2018-06-29T13:38:35.958Z,1.30
2018-06-29T13:41:05.262Z,1.30
2018-06-29T13:43:34.592Z,0.90
2018-06-29T13:46:04.126Z,1.00
2018-06-29T13:48:33.439Z,1.00
2018-06-29T13:51:02.839Z,0.93
2018-06-29T13:53:32.381Z,1.13
2018-06-29T13:56:01.671Z,1.07
2018-06-29T13:58:31.000Z,0.80
2018-06-29T14:01:00.313Z,1.10
2018-06-29T14:03:29.394Z,0.90
2018-06-29T14:05:58.484Z,0.97
2018-06-29T14:08:27.826Z,0.97
2018-06-29T14:10:57.158Z,1.50
2018-06-29T14:13:26.444Z,0.80
2018-06-29T14:15:55.994Z,1.03
2018-06-29T14:18:25.304Z,1.87
2018-06-29T14:20:54.705Z,0.90
2018-06-29T14:23:24.273Z,1.00
2018-06-29T14:25:53.567Z,1.03
2018-06-29T14:28:22.907Z,2.13
2018-06-29T14:30:57.852Z,1.37
2018-06-29T14:33:32.730Z,1.97
2018-06-29T14:36:07.299Z,1.70
2018-06-29T14:38:41.853Z,1.33
2018-06-29T14:41:16.375Z,1.10
2018-06-29T14:43:51.246Z,1.10
2018-06-29T14:46:26.226Z,1.70
2018-06-29T14:49:01.075Z,0.90
2018-06-29T14:51:35.509Z,0.90
2018-06-29T14:54:10.277Z,0.77
2018-06-29T14:56:45.137Z,0.80
2018-06-29T14:59:19.684Z,0.77
2018-06-29T15:01:54.121Z,0.90
2018-06-29T15:04:28.808Z,1.90
2018-06-29T15:07:03.349Z,0.80
2018-06-29T15:09:38.237Z,0.90
2018-06-29T15:12:12.641Z,0.77
2018-06-29T15:14:47.431Z,0.60
2018-06-29T15:17:22.021Z,0.80
2018-06-29T15:19:56.624Z,0.80
2018-06-29T15:22:31.284Z,0.60
2018-06-29T15:25:05.904Z,0.70
2018-06-29T15:27:40.626Z,0.87
2018-06-29T15:30:15.423Z,0.70
2018-06-29T15:32:50.306Z,0.60
2018-06-29T15:35:25.114Z,0.70
2018-06-29T15:37:59.741Z,0.77
2018-06-29T15:40:34.653Z,0.80
2018-06-29T15:43:10.803Z,0.70
2018-06-29T15:45:45.510Z,0.70
2018-06-29T15:48:20.148Z,0.67
2018-06-29T15:50:55.181Z,1.23
2018-06-29T15:53:29.966Z,0.70
2018-06-29T15:56:04.553Z,0.50
2018-06-29T15:58:39.208Z,0.50
2018-06-29T16:01:13.800Z,0.90
2018-06-29T16:03:48.619Z,0.60
2018-06-29T16:06:23.281Z,0.70
2018-06-29T16:08:58.250Z,0.60
2018-06-29T16:11:33.042Z,0.70
2018-06-29T16:14:07.728Z,0.60
2018-06-29T16:16:42.193Z,0.77
2018-06-29T16:19:16.798Z,1.10
2018-06-29T16:21:51.457Z,0.63
2018-06-29T16:24:26.041Z,0.60
2018-06-29T16:26:55.385Z,0.70
2018-06-29T16:29:30.244Z,0.50
2018-06-29T16:31:59.825Z,0.60
2018-06-29T16:34:28.928Z,0.60
2018-06-29T16:37:03.727Z,0.60
2018-06-29T16:39:33.037Z,0.60
2018-06-29T16:42:07.476Z,0.53
2018-06-29T16:44:36.605Z,0.70
2018-06-29T16:47:11.128Z,0.60
2018-06-29T16:49:40.228Z,0.60
2018-06-29T16:52:15.054Z,0.60
2018-06-29T16:54:44.602Z,0.60
2018-06-29T16:57:19.481Z,0.50
2018-06-29T16:59:49.031Z,0.70
2018-06-29T17:02:23.756Z,0.40
2018-06-29T17:04:58.499Z,0.80
2018-06-29T17:07:33.346Z,0.50
2018-06-29T17:10:07.897Z,0.97
2018-06-29T17:12:42.576Z,0.70
2018-06-29T17:15:11.904Z,0.70
2018-06-29T17:17:41.480Z,0.50
2018-06-29T17:20:11.009Z,0.50
2018-06-29T17:22:40.390Z,0.53
2018-06-29T17:25:09.406Z,0.60
2018-06-29T17:27:38.745Z,0.50
2018-06-29T17:30:08.041Z,0.67
2018-06-29T17:32:37.561Z,0.80
2018-06-29T17:35:07.192Z,0.50
2018-06-29T17:37:36.699Z,0.60
2018-06-29T17:40:06.006Z,0.70
2018-06-29T17:42:35.326Z,0.50
2018-06-29T17:45:04.618Z,1.47
2018-06-29T17:47:33.942Z,0.83
2018-06-29T17:50:03.283Z,0.70
2018-06-29T17:52:32.360Z,0.70
2018-06-29T17:55:01.759Z,0.50
2018-06-29T17:57:30.988Z,0.70
2018-06-29T18:00:00.289Z,0.67
2018-06-29T18:02:29.583Z,0.60
2018-06-29T18:04:58.920Z,0.60
2018-06-29T18:07:28.252Z,0.50
2018-06-29T18:09:57.672Z,0.70
2018-06-29T18:12:27.147Z,0.73
2018-06-29T18:14:56.803Z,0.83
2018-06-29T18:17:26.205Z,0.60
2018-06-29T18:19:55.543Z,0.83
2018-06-29T18:22:24.835Z,0.60
2018-06-29T18:24:54.169Z,0.67
2018-06-29T18:27:23.712Z,0.60
2018-06-29T18:29:53.022Z,1.00
2018-06-29T18:32:22.116Z,0.77
2018-06-29T18:34:51.225Z,1.00
2018-06-29T18:37:20.564Z,0.60
2018-06-29T18:39:49.868Z,0.87
2018-06-29T18:42:19.264Z,0.80
2018-06-29T18:44:48.822Z,0.67
2018-06-29T18:47:18.135Z,0.50
2018-06-29T18:49:47.440Z,0.60
2018-06-29T18:52:16.980Z,0.60
2018-06-29T18:54:46.300Z,0.50
2018-06-29T18:57:15.728Z,0.60
2018-06-29T18:59:45.034Z,0.50
2018-06-29T19:02:14.173Z,0.60
2018-06-29T19:04:43.257Z,0.50
2018-06-29T19:07:12.594Z,0.53
2018-06-29T19:09:41.998Z,0.70
2018-06-29T19:12:11.246Z,0.70
2018-06-29T19:14:40.563Z,0.70
2018-06-29T19:17:09.878Z,0.43
2018-06-29T19:19:39.202Z,0.67
2018-06-29T19:22:08.524Z,0.93
2018-06-29T19:24:37.621Z,0.47
2018-06-29T19:27:06.932Z,0.60
2018-06-29T19:29:36.252Z,0.70
2018-06-29T19:32:05.323Z,0.50
2018-06-29T19:34:34.402Z,0.60
2018-06-29T19:37:03.722Z,0.60
2018-06-29T19:39:33.089Z,0.60
2018-06-29T19:42:02.364Z,0.70
2018-06-29T19:44:31.893Z,0.53
2018-06-29T19:47:01.184Z,0.60
2018-06-29T19:49:30.521Z,0.50
2018-06-29T19:51:59.823Z,0.60
2018-06-29T19:54:28.906Z,0.50
2018-06-29T19:56:58.453Z,0.60
2018-06-29T19:59:27.762Z,0.60
2018-06-29T20:01:56.865Z,0.50
2018-06-29T20:04:25.966Z,1.10
2018-06-29T20:06:55.325Z,0.70
2018-06-29T20:09:24.625Z,0.50
2018-06-29T20:11:53.959Z,0.50
2018-06-29T20:14:23.260Z,0.60
2018-06-29T20:16:52.344Z,0.50
2018-06-29T20:19:21.659Z,0.50
2018-06-29T20:21:50.983Z,0.50
2018-06-29T20:24:20.297Z,0.50
2018-06-29T20:26:49.834Z,0.60
2018-06-29T20:29:19.124Z,0.70
2018-06-29T20:31:48.466Z,0.70
2018-06-29T20:34:17.992Z,0.60
2018-06-29T20:36:47.544Z,0.50
2018-06-29T20:39:17.069Z,0.70
2018-06-29T20:41:46.768Z,0.60
2018-06-29T20:44:15.845Z,0.50
2018-06-29T20:46:45.170Z,0.50
2018-06-29T20:49:14.493Z,0.60
2018-06-29T20:51:43.808Z,0.70
2018-06-29T20:54:13.367Z,0.80
2018-06-29T20:56:42.781Z,0.53
2018-06-29T20:59:18.340Z,0.50
2018-06-29T21:01:47.454Z,0.80
2018-06-29T21:04:16.773Z,0.70
2018-06-29T21:06:46.300Z,0.57
2018-06-29T21:09:15.599Z,0.50
2018-06-29T21:11:44.921Z,0.70
2018-06-29T21:14:14.548Z,0.80
2018-06-29T21:16:43.839Z,0.60
2018-06-29T21:19:12.953Z,0.50
2018-06-29T21:21:42.018Z,0.70
2018-06-29T21:24:11.330Z,0.60
2018-06-29T21:26:40.889Z,0.50
2018-06-29T21:29:10.427Z,0.70
2018-06-29T21:31:39.973Z,0.70
2018-06-29T21:34:09.511Z,0.60
2018-06-29T21:36:38.817Z,0.60
2018-06-29T21:39:09.986Z,0.60
2018-06-29T21:41:39.289Z,0.50
2018-06-29T21:44:08.642Z,0.50
2018-06-29T21:46:38.184Z,0.50
2018-06-29T21:49:07.703Z,0.50
2018-06-29T21:51:37.045Z,0.77
2018-06-29T21:54:06.329Z,0.60
2018-06-29T21:56:35.409Z,0.60
2018-06-29T21:59:04.979Z,0.50
2018-06-29T22:01:34.261Z,0.57
2018-06-29T22:04:03.354Z,0.60
2018-06-29T22:06:32.439Z,0.50
2018-06-29T22:09:01.749Z,0.40
2018-06-29T22:11:31.290Z,0.60
2018-06-29T22:14:00.580Z,0.57
2018-06-29T22:16:29.896Z,0.60
2018-06-29T22:18:59.310Z,0.67
2018-06-29T22:21:28.634Z,0.50
2018-06-29T22:23:57.926Z,0.50
2018-06-29T22:26:27.270Z,0.50
2018-06-29T22:28:56.818Z,0.60
2018-06-29T22:31:26.344Z,0.47
2018-06-29T22:33:55.696Z,0.57
2018-06-29T22:36:24.994Z,0.50
2018-06-29T22:38:54.065Z,0.60
2018-06-29T22:41:23.144Z,0.53
2018-06-29T22:43:53.267Z,0.60
2018-06-29T22:46:22.351Z,0.73
2018-06-29T22:48:51.654Z,0.40
2018-06-29T22:51:20.940Z,1.10
2018-06-29T22:53:50.253Z,0.50
2018-06-29T22:56:19.550Z,0.73
2018-06-29T22:58:48.633Z,0.60
2018-06-29T23:01:18.093Z,0.67
2018-06-29T23:03:52.747Z,0.50
2018-06-29T23:06:23.197Z,0.60
2018-06-29T23:08:52.757Z,0.50
2018-06-29T23:11:22.081Z,0.50
2018-06-29T23:13:51.393Z,0.70
2018-06-29T23:16:20.684Z,0.70
2018-06-29T23:18:49.997Z,0.60
2018-06-29T23:21:19.305Z,0.50
2018-06-29T23:23:48.637Z,0.40
2018-06-29T23:26:17.944Z,0.43
2018-06-29T23:28:47.042Z,0.60
2018-06-29T23:31:16.350Z,0.67
2018-06-29T23:33:45.668Z,0.60
2018-06-29T23:36:15.071Z,0.50
2018-06-29T23:38:44.605Z,0.50
2018-06-29T23:41:13.904Z,0.70
2018-06-29T23:43:42.968Z,0.67
2018-06-29T23:46:12.059Z,0.50
2018-06-29T23:48:41.368Z,0.50
2018-06-29T23:51:10.917Z,0.50
2018-06-29T23:53:40.217Z,0.50
2018-06-29T23:56:09.554Z,0.70
2018-06-29T23:58:39.118Z,0.50
